Time;durP1;ratioP1;P1;durP2;ratioP2;P2;SDS_P1;SDS_P2;PMS_P1;PMS_P2;Temp;Humidity;BMP_temperature;BMP_pressure;BME280_temperature;BME280_humidity;BME280_pressure;Samples;Min_cycle;Max_cycle;Signal;HPM_P1;HPM_P2
2024/01/08 00:01:25;;;;;;;7.40;5.20;;;;;;;;;;43421;281;3032702;-31
2024/01/08 00:03:10;;;;;;;7.10;4.90;;;;;;;;;;43426;277;3030337;-31
2024/01/08 00:04:55;;;;;;;7.20;5.10;;;;;;;;;;43440;281;3030748;-31
2024/01/08 00:06:40;;;;;;;6.90;5.00;;;;;;;;;;43440;273;3029498;-31
2024/01/08 00:08:25;;;;;;;7.20;5.00;;;;;;;;;;43438;281;3030829;-31
2024/01/08 00:10:11;;;;;;;6.80;5.00;;;;;;;;;;43413;281;3030516;-31
2024/01/08 00:11:55;;;;;;;6.80;4.80;;;;;;;;;;44152;281;3032131;-31
2024/01/08 00:13:40;;;;;;;7.00;5.10;;;;;;;;;;43617;273;3037905;-31
2024/01/08 00:15:26;;;;;;;7.20;5.20;;;;;;;;;;43317;275;3031209;-31
2024/01/08 00:17:11;;;;;;;7.40;5.00;;;;;;;;;;43405;273;3032386;-31
2024/01/08 00:18:55;;;;;;;6.90;4.80;;;;;;;;;;43443;277;3030525;-31
2024/01/08 00:20:41;;;;;;;7.40;5.10;;;;;;;;;;43420;281;3032070;-31
2024/01/08 00:22:26;;;;;;;6.80;4.90;;;;;;;;;;43406;281;3031564;-31
2024/01/08 00:24:11;;;;;;;6.80;4.40;;;;;;;;;;43435;289;3037291;-31
2024/01/08 00:25:56;;;;;;;7.20;4.90;;;;;;;;;;43887;273;3030193;-31
2024/01/08 00:27:41;;;;;;;6.90;4.80;;;;;;;;;;43440;285;3030576;-31
2024/01/08 00:29:25;;;;;;;7.10;5.10;;;;;;;;;;43424;277;3030397;-31
2024/01/08 00:31:10;;;;;;;7.70;5.20;;;;;;;;;;43479;269;3030591;-31
2024/01/08 00:32:57;;;;;;;7.00;5.00;;;;;;;;;;43397;290;3031996;-31
2024/01/08 00:34:42;;;;;;;6.80;4.80;;;;;;;;;;43497;270;3030531;-31
2024/01/08 00:36:27;;;;;;;7.30;5.20;;;;;;;;;;43432;281;3031205;-31
2024/01/08 00:38:12;;;;;;;6.60;4.80;;;;;;;;;;43424;285;3031489;-31
2024/01/08 00:39:57;;;;;;;6.80;4.80;;;;;;;;;;43449;277;3030291;-31
2024/01/08 00:41:41;;;;;;;6.70;4.90;;;;;;;;;;43448;290;3031337;-31
2024/01/08 00:43:26;;;;;;;6.80;4.70;;;;;;;;;;43403;290;3030673;-31
2024/01/08 00:45:12;;;;;;;6.80;4.80;;;;;;;;;;43433;281;3031338;-31
2024/01/08 00:46:56;;;;;;;7.30;5.10;;;;;;;;;;43431;273;3032489;-31
2024/01/08 00:48:41;;;;;;;6.60;4.80;;;;;;;;;;43430;281;3031492;-31
2024/01/08 00:50:26;;;;;;;7.40;4.60;;;;;;;;;;43452;265;3030940;-31
2024/01/08 00:52:13;;;;;;;7.00;4.50;;;;;;;;;;43424;281;3032341;-31
2024/01/08 00:53:57;;;;;;;7.00;4.80;;;;;;;;;;43402;269;3030698;-31
2024/01/08 00:55:44;;;;;;;7.00;4.90;;;;;;;;;;43425;281;3029876;-31
2024/01/08 00:57:29;;;;;;;6.60;4.50;;;;;;;;;;43454;281;3030558;-31
2024/01/08 00:59:14;;;;;;;6.60;4.90;;;;;;;;;;43446;281;3032588;-31
2024/01/08 01:00:59;;;;;;;6.70;4.80;;;;;;;;;;43437;281;3030998;-31
2024/01/08 01:02:45;;;;;;;6.60;4.80;;;;;;;;;;43421;289;3031994;-31
2024/01/08 01:04:30;;;;;;;7.60;4.80;;;;;;;;;;43398;281;3031634;-31
2024/01/08 01:06:15;;;;;;;7.20;4.90;;;;;;;;;;43432;269;3030904;-31
2024/01/08 01:07:59;;;;;;;7.10;5.10;;;;;;;;;;43427;281;3030661;-31
2024/01/08 01:09:44;;;;;;;7.20;4.70;;;;;;;;;;43429;289;3031124;-31
2024/01/08 01:11:29;;;;;;;7.30;5.10;;;;;;;;;;43439;281;3030991;-31
2024/01/08 01:13:13;;;;;;;7.00;5.00;;;;;;;;;;43393;274;3031274;-31
2024/01/08 01:14:59;;;;;;;7.10;5.00;;;;;;;;;;43370;274;3030674;-31
2024/01/08 01:16:44;;;;;;;7.00;4.90;;;;;;;;;;44094;282;3030580;-31
2024/01/08 01:18:28;;;;;;;7.60;4.90;;;;;;;;;;44099;278;3029955;-31
2024/01/08 01:20:15;;;;;;;6.80;4.70;;;;;;;;;;43629;282;3030816;-31
2024/01/08 01:22:00;;;;;;;6.30;4.70;;;;;;;;;;43989;291;3030442;-31
2024/01/08 01:23:45;;;;;;;7.70;5.00;;;;;;;;;;43407;274;3030190;-31
2024/01/08 01:25:29;;;;;;;7.20;5.00;;;;;;;;;;43380;282;3038019;-31
2024/01/08 01:27:14;;;;;;;7.10;5.00;;;;;;;;;;43406;282;3031073;-31
2024/01/08 01:28:59;;;;;;;7.20;4.90;;;;;;;;;;43417;291;3030885;-31
2024/01/08 01:30:43;;;;;;;6.80;4.80;;;;;;;;;;43401;286;3030304;-31
2024/01/08 01:32:28;;;;;;;7.40;5.20;;;;;;;;;;43392;282;3030692;-31
2024/01/08 01:34:16;;;;;;;7.00;4.90;;;;;;;;;;43384;274;3030204;-31
2024/01/08 01:36:02;;;;;;;7.40;5.00;;;;;;;;;;43372;291;3031032;-31
2024/01/08 01:37:49;;;;;;;6.90;4.80;;;;;;;;;;43375;290;3031059;-31
2024/01/08 01:39:35;;;;;;;6.90;4.80;;;;;;;;;;43406;274;3030641;-31
2024/01/08 01:41:21;;;;;;;6.90;4.80;;;;;;;;;;43561;282;3030054;-31
2024/01/08 01:43:24;;;;;;;6.90;4.80;;;;;;;;;;43375;266;3030488;-31
2024/01/08 01:45:11;;;;;;;6.80;4.60;;;;;;;;;;43438;282;3031186;-31
2024/01/08 01:46:58;;;;;;;6.60;4.70;;;;;;;;;;43879;282;3031094;-31
2024/01/08 01:48:44;;;;;;;6.70;4.80;;;;;;;;;;43424;291;3031095;-31
2024/01/08 01:50:30;;;;;;;7.00;4.90;;;;;;;;;;43415;282;3030386;-31
2024/01/08 01:52:16;;;;;;;7.10;5.00;;;;;;;;;;43382;282;3030145;-31
2024/01/08 01:54:01;;;;;;;6.70;4.60;;;;;;;;;;43390;270;3031433;-31
2024/01/08 01:55:48;;;;;;;7.10;4.90;;;;;;;;;;43383;274;3030815;-31
2024/01/08 01:57:32;;;;;;;6.50;4.50;;;;;;;;;;43813;270;3031103;-31
2024/01/08 01:59:20;;;;;;;7.10;4.70;;;;;;;;;;43396;282;3030646;-31
2024/01/08 02:01:06;;;;;;;7.20;5.10;;;;;;;;;;43409;291;3031326;-31
2024/01/08 02:02:53;;;;;;;6.60;4.80;;;;;;;;;;43370;282;3030614;-31
2024/01/08 02:04:43;;;;;;;7.40;5.10;;;;;;;;;;43424;274;3032041;-31
2024/01/08 02:06:29;;;;;;;6.90;4.80;;;;;;;;;;43393;270;3037280;-31
2024/01/08 02:08:17;;;;;;;6.50;4.50;;;;;;;;;;43422;278;3030919;-31
2024/01/08 02:10:07;;;;;;;6.50;4.60;;;;;;;;;;43387;282;3030927;-31
2024/01/08 02:11:52;;;;;;;6.90;5.20;;;;;;;;;;43918;278;3031663;-31
2024/01/08 02:13:37;;;;;;;7.20;5.00;;;;;;;;;;43437;273;3030687;-31
2024/01/08 02:15:21;;;;;;;6.80;4.80;;;;;;;;;;43391;277;3030865;-31
2024/01/08 02:17:08;;;;;;;7.00;4.90;;;;;;;;;;43427;265;3031034;-31
2024/01/08 02:18:53;;;;;;;7.20;5.10;;;;;;;;;;43455;281;3031706;-31
2024/01/08 02:20:40;;;;;;;6.60;5.10;;;;;;;;;;43439;281;3031689;-31
2024/01/08 02:22:25;;;;;;;7.50;4.90;;;;;;;;;;43417;281;3030598;-31
2024/01/08 02:24:12;;;;;;;6.80;4.90;;;;;;;;;;43455;273;3031425;-31
2024/01/08 02:25:57;;;;;;;7.20;5.00;;;;;;;;;;43407;281;3031271;-31
2024/01/08 02:27:45;;;;;;;7.20;4.70;;;;;;;;;;43436;273;3031346;-31
2024/01/08 02:29:32;;;;;;;6.70;5.00;;;;;;;;;;43460;281;3030490;-31
2024/01/08 02:31:22;;;;;;;6.90;4.60;;;;;;;;;;43435;281;3029561;-31
2024/01/08 02:33:07;;;;;;;6.60;4.80;;;;;;;;;;43441;281;3031336;-31
2024/01/08 02:34:52;;;;;;;7.20;4.90;;;;;;;;;;43398;269;3030925;-31
2024/01/08 02:36:37;;;;;;;6.80;5.00;;;;;;;;;;43393;269;3031703;-31
2024/01/08 02:38:22;;;;;;;7.40;4.90;;;;;;;;;;43411;281;3030985;-31
2024/01/08 02:40:09;;;;;;;6.70;4.70;;;;;;;;;;43453;281;3030574;-31
2024/01/08 02:41:53;;;;;;;7.10;4.90;;;;;;;;;;43839;290;3031165;-31
2024/01/08 02:43:41;;;;;;;7.00;4.70;;;;;;;;;;43429;281;3030084;-31
2024/01/08 02:45:28;;;;;;;6.90;4.70;;;;;;;;;;43417;281;3031426;-31
2024/01/08 02:47:15;;;;;;;7.00;4.90;;;;;;;;;;43422;281;3037220;-31
2024/01/08 02:48:59;;;;;;;6.90;4.80;;;;;;;;;;43454;273;3030535;-31
2024/01/08 02:50:44;;;;;;;6.40;4.70;;;;;;;;;;43435;277;3031004;-31
2024/01/08 02:52:29;;;;;;;6.60;5.00;;;;;;;;;;43431;273;3031790;-31
2024/01/08 02:54:15;;;;;;;7.20;5.00;;;;;;;;;;43426;269;3031363;-31
2024/01/08 02:55:59;;;;;;;6.60;4.60;;;;;;;;;;43414;281;3031524;-31
2024/01/08 02:57:44;;;;;;;6.60;4.80;;;;;;;;;;43413;290;3037298;-31
2024/01/08 02:59:28;;;;;;;7.10;4.90;;;;;;;;;;43410;273;3030518;-31
2024/01/08 03:01:13;;;;;;;6.60;5.00;;;;;;;;;;43427;290;3031463;-31
2024/01/08 03:02:58;;;;;;;7.00;5.00;;;;;;;;;;43426;281;3031191;-31
2024/01/08 03:04:43;;;;;;;6.40;4.50;;;;;;;;;;43445;281;3030738;-31
2024/01/08 03:06:28;;;;;;;6.60;4.70;;;;;;;;;;43422;289;3030811;-31
2024/01/08 03:08:13;;;;;;;6.70;4.80;;;;;;;;;;43436;281;3030854;-31
2024/01/08 03:09:58;;;;;;;6.80;5.00;;;;;;;;;;43435;281;3030453;-31
2024/01/08 03:11:43;;;;;;;6.80;5.00;;;;;;;;;;43417;281;3031081;-31
2024/01/08 03:13:27;;;;;;;6.70;4.90;;;;;;;;;;43412;281;3030189;-31
2024/01/08 03:15:14;;;;;;;6.50;4.50;;;;;;;;;;43409;281;3030778;-31
2024/01/08 03:16:58;;;;;;;6.60;4.50;;;;;;;;;;43470;281;3031291;-31
2024/01/08 03:18:43;;;;;;;6.70;4.70;;;;;;;;;;43441;281;3030874;-31
2024/01/08 03:20:29;;;;;;;7.00;5.00;;;;;;;;;;43435;270;3030723;-31
2024/01/08 03:22:13;;;;;;;6.60;4.90;;;;;;;;;;43438;281;3030829;-31
2024/01/08 03:23:58;;;;;;;7.30;4.90;;;;;;;;;;43446;281;3031324;-31
2024/01/08 03:25:43;;;;;;;7.20;4.90;;;;;;;;;;43461;281;3030455;-31
2024/01/08 03:27:28;;;;;;;7.20;4.80;;;;;;;;;;43434;273;3030947;-31
2024/01/08 03:29:13;;;;;;;6.40;4.70;;;;;;;;;;43480;273;3031038;-31
2024/01/08 03:31:02;;;;;;;7.40;5.00;;;;;;;;;;43470;290;3031235;-31
2024/01/08 03:32:47;;;;;;;7.00;4.80;;;;;;;;;;43440;289;3031021;-31
2024/01/08 03:34:32;;;;;;;7.00;4.90;;;;;;;;;;43434;281;3030482;-31
2024/01/08 03:36:19;;;;;;;8.20;4.90;;;;;;;;;;43437;281;3030650;-31
2024/01/08 03:38:04;;;;;;;8.00;5.10;;;;;;;;;;43413;281;3030253;-31
2024/01/08 03:39:51;;;;;;;7.30;4.60;;;;;;;;;;43441;281;3030869;-31
2024/01/08 03:41:35;;;;;;;7.80;4.80;;;;;;;;;;43437;277;3030094;-31
2024/01/08 03:43:20;;;;;;;7.10;4.80;;;;;;;;;;43451;281;3030723;-31
2024/01/08 03:45:09;;;;;;;8.40;5.10;;;;;;;;;;43457;273;3030588;-31
2024/01/08 03:46:54;;;;;;;7.10;4.50;;;;;;;;;;43637;283;3031190;-31
2024/01/08 03:48:39;;;;;;;7.20;4.70;;;;;;;;;;43384;281;3031236;-31
2024/01/08 03:50:23;;;;;;;7.20;4.70;;;;;;;;;;43450;281;3030706;-31
2024/01/08 03:52:09;;;;;;;6.90;4.70;;;;;;;;;;43453;281;3032457;-31
2024/01/08 03:53:55;;;;;;;6.50;4.60;;;;;;;;;;43415;281;3030916;-31
2024/01/08 03:55:41;;;;;;;7.10;4.80;;;;;;;;;;43437;281;3030898;-31
2024/01/08 03:57:27;;;;;;;7.40;4.50;;;;;;;;;;43454;273;3030714;-31
2024/01/08 03:59:14;;;;;;;7.00;4.30;;;;;;;;;;43424;281;3038685;-31
2024/01/08 04:00:59;;;;;;;7.40;4.60;;;;;;;;;;43524;269;3030893;-31
2024/01/08 04:02:44;;;;;;;6.80;4.40;;;;;;;;;;43437;281;3030221;-31
2024/01/08 04:04:34;;;;;;;8.20;4.70;;;;;;;;;;43432;270;3031424;-31
2024/01/08 04:06:19;;;;;;;7.40;4.90;;;;;;;;;;43425;281;3032330;-31
2024/01/08 04:08:08;;;;;;;7.00;4.70;;;;;;;;;;43410;270;3030636;-31
2024/01/08 04:09:53;;;;;;;7.40;5.10;;;;;;;;;;43907;281;3030883;-30
2024/01/08 04:11:39;;;;;;;6.80;4.90;;;;;;;;;;43442;289;3031126;-30
2024/01/08 04:13:24;;;;;;;7.50;4.80;;;;;;;;;;43445;281;3032499;-31
2024/01/08 04:15:11;;;;;;;7.20;4.90;;;;;;;;;;43432;281;3031368;-31
2024/01/08 04:16:56;;;;;;;7.40;4.70;;;;;;;;;;43701;269;3031242;-31
2024/01/08 04:18:41;;;;;;;7.80;4.90;;;;;;;;;;43403;281;3030793;-31
2024/01/08 04:20:26;;;;;;;7.50;4.70;;;;;;;;;;43424;281;3030913;-31
2024/01/08 04:22:11;;;;;;;7.20;4.60;;;;;;;;;;43444;281;3031000;-31
2024/01/08 04:23:55;;;;;;;6.80;4.70;;;;;;;;;;43430;270;3031178;-31
2024/01/08 04:25:40;;;;;;;7.60;4.90;;;;;;;;;;43447;281;3031383;-31
2024/01/08 04:27:25;;;;;;;7.90;4.60;;;;;;;;;;43453;269;3031169;-31
2024/01/08 04:29:11;;;;;;;7.50;4.70;;;;;;;;;;43423;273;3031030;-31
2024/01/08 04:30:56;;;;;;;6.50;4.70;;;;;;;;;;43421;269;3030756;-31
2024/01/08 04:32:44;;;;;;;6.70;4.60;;;;;;;;;;43443;281;3031489;-31
2024/01/08 04:34:31;;;;;;;7.40;4.60;;;;;;;;;;43437;277;3031339;-31
2024/01/08 04:36:17;;;;;;;7.10;5.10;;;;;;;;;;43466;281;3030631;-31
2024/01/08 04:38:04;;;;;;;6.90;4.40;;;;;;;;;;43449;281;3032368;-31
2024/01/08 04:39:49;;;;;;;8.00;4.90;;;;;;;;;;43760;281;3029947;-31
2024/01/08 04:41:33;;;;;;;6.60;4.60;;;;;;;;;;43423;281;3031245;-31
2024/01/08 04:43:18;;;;;;;7.40;4.70;;;;;;;;;;43423;281;3030610;-31
2024/01/08 04:45:04;;;;;;;6.90;4.90;;;;;;;;;;43415;290;3031249;-31
2024/01/08 04:46:49;;;;;;;7.40;4.50;;;;;;;;;;44150;277;3030111;-31
2024/01/08 04:48:34;;;;;;;6.90;4.60;;;;;;;;;;44139;277;3031131;-31
2024/01/08 04:50:19;;;;;;;6.80;4.80;;;;;;;;;;44162;270;3030032;-31
2024/01/08 04:52:04;;;;;;;6.30;4.60;;;;;;;;;;43586;290;3030840;-31
2024/01/08 04:53:52;;;;;;;7.40;4.80;;;;;;;;;;43412;281;3031313;-31
2024/01/08 04:55:37;;;;;;;7.20;4.70;;;;;;;;;;43437;281;3031022;-31
2024/01/08 04:57:24;;;;;;;7.10;4.80;;;;;;;;;;43443;269;3030470;-31
2024/01/08 04:59:09;;;;;;;6.70;4.60;;;;;;;;;;43406;273;3030054;-31
2024/01/08 05:00:54;;;;;;;6.30;4.50;;;;;;;;;;43438;281;3031202;-31
2024/01/08 05:02:40;;;;;;;6.40;4.40;;;;;;;;;;43425;265;3029990;-31
2024/01/08 05:04:28;;;;;;;6.50;4.40;;;;;;;;;;43400;281;3030587;-31
2024/01/08 05:06:14;;;;;;;7.20;4.50;;;;;;;;;;43416;269;3030710;-31
2024/01/08 05:08:01;;;;;;;6.60;4.50;;;;;;;;;;43441;281;3030744;-31
2024/01/08 05:09:47;;;;;;;6.40;4.70;;;;;;;;;;43412;281;3030180;-31
2024/01/08 05:11:33;;;;;;;5.90;4.50;;;;;;;;;;43447;273;3031282;-31
2024/01/08 05:13:18;;;;;;;6.40;4.40;;;;;;;;;;43437;273;3030212;-31
2024/01/08 05:15:09;;;;;;;7.00;4.50;;;;;;;;;;43415;281;3031926;-31
2024/01/08 05:16:54;;;;;;;7.00;4.60;;;;;;;;;;43533;273;3030921;-31
2024/01/08 05:18:39;;;;;;;6.30;4.20;;;;;;;;;;43427;281;3030169;-31
2024/01/08 05:20:24;;;;;;;7.40;4.40;;;;;;;;;;43415;269;3030852;-31
2024/01/08 05:22:09;;;;;;;6.90;4.50;;;;;;;;;;43422;281;3030640;-31
2024/01/08 05:23:54;;;;;;;6.30;4.20;;;;;;;;;;43429;273;3030979;-31
2024/01/08 05:25:40;;;;;;;6.90;4.60;;;;;;;;;;43411;273;3030595;-31
2024/01/08 05:27:26;;;;;;;6.60;4.60;;;;;;;;;;43431;281;3030821;-31
2024/01/08 05:29:12;;;;;;;6.70;4.40;;;;;;;;;;43420;281;3031258;-31
2024/01/08 05:30:57;;;;;;;7.00;4.40;;;;;;;;;;43393;273;3030482;-31
2024/01/08 05:32:42;;;;;;;6.40;4.20;;;;;;;;;;43423;281;3030283;-31
2024/01/08 05:34:30;;;;;;;6.50;4.50;;;;;;;;;;43423;269;3030349;-31
2024/01/08 05:36:15;;;;;;;7.30;4.50;;;;;;;;;;43420;281;3030831;-31
2024/01/08 05:38:01;;;;;;;8.50;4.90;;;;;;;;;;43434;281;3031118;-31
2024/01/08 05:39:49;;;;;;;6.40;4.40;;;;;;;;;;43419;273;3031145;-32
2024/01/08 05:41:35;;;;;;;7.00;4.40;;;;;;;;;;43400;281;3037615;-32
2024/01/08 05:43:21;;;;;;;6.60;4.60;;;;;;;;;;43439;281;3030518;-31
2024/01/08 05:45:08;;;;;;;6.40;4.20;;;;;;;;;;43440;281;3029972;-31
2024/01/08 05:46:53;;;;;;;6.20;3.90;;;;;;;;;;43605;277;3030723;-31
2024/01/08 05:48:40;;;;;;;7.00;4.40;;;;;;;;;;43420;286;3030116;-31
2024/01/08 05:50:27;;;;;;;7.70;4.60;;;;;;;;;;43427;273;3031174;-31
2024/01/08 05:52:12;;;;;;;7.20;4.30;;;;;;;;;;43426;270;3031108;-31
2024/01/08 05:53:57;;;;;;;6.70;4.30;;;;;;;;;;43423;281;3030531;-31
2024/01/08 05:55:43;;;;;;;6.50;4.40;;;;;;;;;;43424;273;3030407;-31
2024/01/08 05:57:28;;;;;;;6.50;4.20;;;;;;;;;;43432;281;3030497;-31
2024/01/08 05:59:14;;;;;;;6.60;4.40;;;;;;;;;;43413;281;3030707;-31
2024/01/08 06:00:59;;;;;;;6.30;4.10;;;;;;;;;;43437;273;3030544;-31
2024/01/08 06:02:44;;;;;;;7.00;4.60;;;;;;;;;;44156;269;3031355;-31
2024/01/08 06:04:30;;;;;;;8.40;4.40;;;;;;;;;;44168;277;3029986;-31
2024/01/08 06:06:16;;;;;;;6.60;4.40;;;;;;;;;;43519;281;3030795;-31
2024/01/08 06:08:02;;;;;;;7.20;4.70;;;;;;;;;;43417;277;3030998;-31
2024/01/08 06:09:47;;;;;;;6.20;4.40;;;;;;;;;;43442;289;3030914;-31
2024/01/08 06:11:31;;;;;;;6.40;4.30;;;;;;;;;;43405;286;3031068;-31
2024/01/08 06:13:17;;;;;;;6.90;4.20;;;;;;;;;;43354;282;3030241;-31
2024/01/08 06:15:05;;;;;;;8.40;4.60;;;;;;;;;;43358;270;3030659;-31
2024/01/08 06:16:50;;;;;;;6.80;4.40;;;;;;;;;;43371;282;3030494;-31
2024/01/08 06:18:38;;;;;;;6.90;4.50;;;;;;;;;;43363;282;3029970;-31
2024/01/08 06:20:24;;;;;;;6.70;4.50;;;;;;;;;;43371;282;3030223;-31
2024/01/08 06:22:09;;;;;;;7.20;4.50;;;;;;;;;;43355;282;3030482;-31
2024/01/08 06:23:56;;;;;;;6.50;4.20;;;;;;;;;;43391;291;3032616;-31
2024/01/08 06:25:44;;;;;;;6.00;3.90;;;;;;;;;;43373;282;3032784;-31
2024/01/08 06:27:29;;;;;;;7.80;4.60;;;;;;;;;;43364;278;3031334;-31
2024/01/08 06:29:13;;;;;;;6.30;4.10;;;;;;;;;;43358;278;3031173;-32
2024/01/08 06:30:59;;;;;;;6.10;4.20;;;;;;;;;;43365;278;3031149;-31
2024/01/08 06:32:44;;;;;;;6.30;4.10;;;;;;;;;;43360;282;3038254;-31
2024/01/08 06:34:31;;;;;;;6.30;4.20;;;;;;;;;;43356;270;3031220;-31
2024/01/08 06:36:18;;;;;;;6.40;4.30;;;;;;;;;;43349;282;3031212;-31
2024/01/08 06:38:05;;;;;;;6.60;4.10;;;;;;;;;;43362;282;3030356;-32
2024/01/08 06:39:52;;;;;;;7.00;4.30;;;;;;;;;;43332;282;3031688;-31
2024/01/08 06:41:37;;;;;;;6.50;4.20;;;;;;;;;;43584;282;3030512;-31
2024/01/08 06:43:22;;;;;;;7.20;4.20;;;;;;;;;;43354;271;3030681;-31
2024/01/08 06:45:12;;;;;;;6.60;4.30;;;;;;;;;;43363;274;3031181;-31
2024/01/08 06:46:57;;;;;;;6.50;4.30;;;;;;;;;;44020;279;3031248;-32
2024/01/08 06:48:44;;;;;;;6.20;4.60;;;;;;;;;;43801;286;3030515;-32
2024/01/08 06:50:29;;;;;;;6.50;4.30;;;;;;;;;;43356;282;3031517;-32
2024/01/08 06:52:14;;;;;;;6.50;4.20;;;;;;;;;;43354;282;3030757;-32
2024/01/08 06:54:02;;;;;;;7.70;4.40;;;;;;;;;;43358;282;3030100;-32
2024/01/08 06:55:50;;;;;;;6.10;4.20;;;;;;;;;;43356;271;3031694;-32
2024/01/08 06:57:37;;;;;;;6.30;4.20;;;;;;;;;;43373;270;3031412;-32
2024/01/08 06:59:25;;;;;;;6.10;4.10;;;;;;;;;;43349;274;3030727;-31
2024/01/08 07:01:10;;;;;;;6.40;4.30;;;;;;;;;;43356;282;3030276;-31
2024/01/08 07:02:55;;;;;;;6.60;4.40;;;;;;;;;;43353;287;3029646;-31
2024/01/08 07:04:41;;;;;;;6.00;4.00;;;;;;;;;;43367;282;3031094;-31
2024/01/08 07:06:25;;;;;;;6.40;4.30;;;;;;;;;;43375;282;3031195;-31
2024/01/08 07:08:11;;;;;;;5.80;3.90;;;;;;;;;;43395;274;3030457;-31
2024/01/08 07:09:56;;;;;;;6.20;4.20;;;;;;;;;;43346;282;3030912;-31
2024/01/08 07:11:42;;;;;;;6.60;4.20;;;;;;;;;;43353;290;3031852;-31
2024/01/08 07:13:27;;;;;;;6.10;4.20;;;;;;;;;;43412;281;3037255;-31
2024/01/08 07:15:43;;;;;;;6.10;4.10;;;;;;;;;;43412;277;3031436;-31
2024/01/08 07:17:28;;;;;;;6.30;3.90;;;;;;;;;;43432;281;3031068;-31
2024/01/08 07:19:13;;;;;;;6.60;4.30;;;;;;;;;;43436;281;3030514;-31
2024/01/08 07:21:00;;;;;;;6.80;4.30;;;;;;;;;;43429;290;3030685;-31
2024/01/08 07:22:47;;;;;;;6.90;4.20;;;;;;;;;;43440;273;3030908;-31
2024/01/08 07:24:31;;;;;;;6.00;4.00;;;;;;;;;;43422;281;3030206;-31
2024/01/08 07:26:16;;;;;;;6.20;4.30;;;;;;;;;;43442;281;3030972;-31
2024/01/08 07:28:03;;;;;;;6.10;4.20;;;;;;;;;;43082;283;3030788;-31
2024/01/08 07:29:50;;;;;;;5.80;4.20;;;;;;;;;;43424;275;3030994;-31
2024/01/08 07:31:36;;;;;;;6.00;4.10;;;;;;;;;;43426;281;3030558;-31
2024/01/08 07:33:23;;;;;;;6.90;4.20;;;;;;;;;;43408;281;3031959;-31
2024/01/08 07:35:11;;;;;;;6.10;4.10;;;;;;;;;;43429;281;3030960;-31
2024/01/08 07:36:56;;;;;;;6.50;4.30;;;;;;;;;;44123;281;3031436;-31
2024/01/08 07:38:40;;;;;;;6.10;4.40;;;;;;;;;;44132;281;3030159;-31
2024/01/08 07:40:26;;;;;;;6.30;4.10;;;;;;;;;;44144;281;3031162;-31
2024/01/08 07:42:10;;;;;;;6.10;4.20;;;;;;;;;;43906;281;3030803;-31
2024/01/08 07:43:55;;;;;;;6.10;4.10;;;;;;;;;;43397;273;3031198;-31
2024/01/08 07:45:40;;;;;;;6.20;4.30;;;;;;;;;;43423;277;3030765;-31
2024/01/08 07:47:25;;;;;;;6.30;4.10;;;;;;;;;;43318;271;3031424;-31
2024/01/08 07:49:11;;;;;;;6.10;4.00;;;;;;;;;;43406;281;3030192;-31
2024/01/08 07:50:56;;;;;;;7.10;4.30;;;;;;;;;;43435;277;3031227;-31
2024/01/08 07:52:41;;;;;;;6.30;4.10;;;;;;;;;;43428;269;3030927;-31
2024/01/08 07:54:28;;;;;;;6.30;4.20;;;;;;;;;;43393;269;3038721;-31
2024/01/08 07:56:12;;;;;;;6.60;4.20;;;;;;;;;;43438;281;3030840;-31
2024/01/08 07:57:57;;;;;;;6.20;4.30;;;;;;;;;;43408;273;3031417;-31
2024/01/08 07:59:42;;;;;;;5.90;4.20;;;;;;;;;;43430;273;3030946;-31
2024/01/08 08:01:27;;;;;;;6.50;4.60;;;;;;;;;;43431;289;3030638;-31
2024/01/08 08:03:13;;;;;;;6.70;4.70;;;;;;;;;;43411;281;3030617;-31
2024/01/08 08:04:58;;;;;;;6.20;4.30;;;;;;;;;;43422;273;3038098;-31
2024/01/08 08:06:45;;;;;;;5.90;4.20;;;;;;;;;;43410;281;3030421;-31
2024/01/08 08:08:34;;;;;;;6.20;4.00;;;;;;;;;;43415;270;3031119;-31
2024/01/08 08:10:19;;;;;;;7.00;4.30;;;;;;;;;;44125;273;3030382;-31
2024/01/08 08:12:07;;;;;;;7.70;4.50;;;;;;;;;;44109;289;3031206;-31
2024/01/08 08:13:52;;;;;;;6.90;4.50;;;;;;;;;;44130;269;3030821;-31
2024/01/08 08:15:36;;;;;;;7.00;4.50;;;;;;;;;;44126;281;3030714;-31
2024/01/08 08:17:21;;;;;;;6.50;4.20;;;;;;;;;;44112;277;3030566;-32
2024/01/08 08:19:07;;;;;;;7.80;4.70;;;;;;;;;;43721;281;3031050;-32
2024/01/08 08:20:52;;;;;;;7.60;4.20;;;;;;;;;;43415;273;3031279;-32
2024/01/08 08:22:37;;;;;;;6.90;4.50;;;;;;;;;;43429;281;3030653;-31
2024/01/08 08:24:27;;;;;;;6.80;4.40;;;;;;;;;;43402;270;3031419;-31
2024/01/08 08:26:11;;;;;;;6.80;4.40;;;;;;;;;;43435;270;3030699;-31
2024/01/08 08:28:01;;;;;;;7.60;4.50;;;;;;;;;;43441;277;3031089;-31
2024/01/08 08:29:47;;;;;;;7.10;4.60;;;;;;;;;;43413;281;3030560;-31
2024/01/08 08:31:32;;;;;;;7.40;4.70;;;;;;;;;;43432;290;3030805;-32
2024/01/08 08:33:17;;;;;;;7.20;4.20;;;;;;;;;;43389;282;3028431;-31
2024/01/08 08:35:04;;;;;;;8.00;4.60;;;;;;;;;;43423;281;3030992;-31
2024/01/08 08:36:49;;;;;;;7.10;4.30;;;;;;;;;;43705;269;3030184;-31
2024/01/08 08:38:34;;;;;;;7.40;4.60;;;;;;;;;;43420;281;3030720;-31
2024/01/08 08:40:19;;;;;;;8.10;4.80;;;;;;;;;;43399;290;3030189;-31
2024/01/08 08:42:05;;;;;;;6.70;4.30;;;;;;;;;;43450;290;3030984;-31
2024/01/08 08:43:50;;;;;;;6.80;4.40;;;;;;;;;;43570;273;3031001;-31
2024/01/08 08:45:39;;;;;;;6.30;4.20;;;;;;;;;;43399;273;3031496;-31
2024/01/08 08:47:24;;;;;;;7.10;4.40;;;;;;;;;;43440;281;3030501;-31
2024/01/08 08:49:09;;;;;;;6.70;4.40;;;;;;;;;;44130;277;3030913;-32
2024/01/08 08:50:54;;;;;;;8.00;4.60;;;;;;;;;;44126;280;3031630;-34
2024/01/08 08:52:39;;;;;;;6.90;4.60;;;;;;;;;;43920;274;3030264;-34
2024/01/08 08:54:24;;;;;;;6.60;4.30;;;;;;;;;;43409;278;3030740;-33
2024/01/08 08:56:10;;;;;;;6.80;4.60;;;;;;;;;;43408;281;3038438;-34
2024/01/08 08:57:54;;;;;;;6.90;4.40;;;;;;;;;;44123;281;3030846;-33
2024/01/08 08:59:38;;;;;;;7.10;4.10;;;;;;;;;;44110;277;3031603;-33
2024/01/08 09:01:23;;;;;;;7.00;4.50;;;;;;;;;;43540;274;3031321;-33
2024/01/08 09:03:08;;;;;;;6.50;4.00;;;;;;;;;;43422;282;3030858;-33
2024/01/08 09:04:54;;;;;;;7.40;4.40;;;;;;;;;;43380;281;3031395;-33
2024/01/08 09:06:40;;;;;;;6.60;4.20;;;;;;;;;;43379;270;3031108;-33
2024/01/08 09:08:27;;;;;;;7.10;4.50;;;;;;;;;;43435;281;3030594;-34
2024/01/08 09:10:12;;;;;;;7.10;4.20;;;;;;;;;;43419;281;3031664;-34
2024/01/08 09:11:57;;;;;;;8.30;4.50;;;;;;;;;;43816;270;3030181;-34
2024/01/08 09:13:43;;;;;;;6.30;4.20;;;;;;;;;;43409;270;3031937;-34
2024/01/08 09:15:28;;;;;;;6.30;4.00;;;;;;;;;;43375;274;3030802;-34
2024/01/08 09:17:13;;;;;;;6.10;4.10;;;;;;;;;;43422;281;3030783;-34
2024/01/08 09:18:58;;;;;;;6.60;4.40;;;;;;;;;;43397;274;3031232;-34
2024/01/08 09:20:44;;;;;;;6.70;4.20;;;;;;;;;;43396;282;3031232;-34
2024/01/08 09:22:30;;;;;;;6.70;4.00;;;;;;;;;;43391;281;3031006;-35
2024/01/08 09:24:16;;;;;;;6.30;3.90;;;;;;;;;;43396;281;3032047;-34
2024/01/08 09:26:00;;;;;;;6.50;4.30;;;;;;;;;;43405;281;3030658;-34
2024/01/08 09:27:45;;;;;;;7.40;4.50;;;;;;;;;;43433;269;3030710;-34
2024/01/08 09:29:29;;;;;;;6.50;4.30;;;;;;;;;;43467;272;3030392;-34
2024/01/08 09:31:13;;;;;;;6.60;4.30;;;;;;;;;;43451;269;3030428;-34
2024/01/08 09:33:01;;;;;;;6.70;4.10;;;;;;;;;;43433;289;3030328;-34
2024/01/08 09:34:45;;;;;;;6.50;4.30;;;;;;;;;;43446;281;3030754;-33
2024/01/08 09:36:30;;;;;;;6.70;4.00;;;;;;;;;;43473;273;3031186;-36
2024/01/08 09:38:14;;;;;;;6.90;4.50;;;;;;;;;;43528;290;3030480;-36
2024/01/08 09:39:59;;;;;;;7.00;4.50;;;;;;;;;;43504;281;3031841;-36
2024/01/08 09:41:45;;;;;;;6.60;4.40;;;;;;;;;;43426;281;3032196;-35
2024/01/08 09:43:30;;;;;;;6.10;4.20;;;;;;;;;;44127;273;3030616;-36
2024/01/08 09:45:21;;;;;;;6.40;4.10;;;;;;;;;;43906;281;3030491;-36
2024/01/08 09:47:07;;;;;;;6.50;4.10;;;;;;;;;;43389;281;3036253;-36
2024/01/08 09:48:53;;;;;;;6.40;4.30;;;;;;;;;;43437;273;3030158;-36
2024/01/08 09:50:40;;;;;;;5.90;4.10;;;;;;;;;;43436;281;3031286;-36
2024/01/08 09:52:25;;;;;;;6.60;4.10;;;;;;;;;;44121;281;3030853;-36
2024/01/08 09:54:26;;;;;;;6.40;4.20;;;;;;;;;;44094;270;3032225;-36
2024/01/08 09:56:13;;;;;;;6.30;4.30;;;;;;;;;;43422;281;3030718;-36
2024/01/08 09:58:01;;;;;;;7.70;4.50;;;;;;;;;;43443;281;3030872;-36
2024/01/08 09:59:45;;;;;;;7.90;4.70;;;;;;;;;;43400;269;3030502;-36
2024/01/08 10:01:30;;;;;;;7.90;4.60;;;;;;;;;;43401;270;3030537;-36
2024/01/08 10:03:15;;;;;;;7.90;4.50;;;;;;;;;;43395;277;3031909;-36
2024/01/08 10:05:00;;;;;;;8.30;4.70;;;;;;;;;;43400;270;3030109;-36
2024/01/08 10:06:49;;;;;;;7.40;4.60;;;;;;;;;;43809;281;3030888;-36
2024/01/08 10:08:35;;;;;;;7.00;4.10;;;;;;;;;;43414;270;3031358;-36
2024/01/08 10:10:22;;;;;;;8.00;4.30;;;;;;;;;;43755;281;3030433;-36
2024/01/08 10:12:10;;;;;;;6.60;4.30;;;;;;;;;;43403;290;3030908;-36
2024/01/08 10:13:58;;;;;;;7.10;4.50;;;;;;;;;;43777;281;3031585;-36
2024/01/08 10:15:48;;;;;;;6.90;4.30;;;;;;;;;;43392;282;3031098;-36
2024/01/08 10:17:34;;;;;;;6.90;4.30;;;;;;;;;;43361;281;3030975;-36
2024/01/08 10:19:23;;;;;;;7.50;4.70;;;;;;;;;;43393;290;3031602;-36
2024/01/08 10:21:14;;;;;;;7.30;4.70;;;;;;;;;;43399;281;3031349;-36
2024/01/08 10:23:09;;;;;;;8.40;4.60;;;;;;;;;;44072;278;3030327;-36
2024/01/08 10:24:54;;;;;;;7.70;4.50;;;;;;;;;;43674;281;3030606;-36
2024/01/08 10:26:42;;;;;;;7.70;4.50;;;;;;;;;;43411;274;3030609;-36